Dudignac, Argentina
Current Conditions -  °F | °C
As of 3:00 AM on Saturday 20 Dec 2014 (Local Time) from SAEZ Reporting Station
Few Clouds Few Clouds  
Wind Chill: 26°   Ceiling: Unl
Heat Index: 27°   Visibility: 6mi
Dew Point: 16°   Wind: 8mph
Humidity: 54%   Direction: 360°N
Pressure: 29.53"   Gusts: NA
Location:  35.66°S, 60.72°W
Report Text: SAEZ 200600Z 36007KT 310V020 9999 FEW039 26/16 Q1000
Loading
Personal Weather Stations






























Interactive Weather Map New forecast layout! Learn more

10-Day Weather Forecast

Advertisements
Track Severe Weather on mobile